Terminal Aerodrome Forecast
Issued by NWS

Home | Current Version | Previous Version | Text Only | Print | Product List | Glossary On
Versions: 1 2 3 4 5 6 7 8 9 10 11 12 13 14 15 16 17 18
074
FTUS44 KSJT 202337
TAFSOA
TAF
KSOA 202337Z 2100/2124 15014G20KT P6SM OVC025
     FM210600 16012G20KT P6SM OVC007
     FM210800 16011KT P6SM VCSH OVC007
     FM211300 19012KT P6SM OVC015
     FM212000 27012KT P6SM SCT250=

USA.gov is the U.S. government's official web portal to all federal, state and local government web resources and services.